createdAt,value
2023-04-12T00:03:03.322Z,48.50
2023-04-12T00:06:10.471Z,45.00
2023-04-12T00:09:14.623Z,45.25
2023-04-12T00:12:19.321Z,55.50
2023-04-12T00:15:23.183Z,45.25
2023-04-12T00:18:27.477Z,53.25
2023-04-12T00:21:32.932Z,42.00
2023-04-12T00:24:36.501Z,43.00
2023-04-12T00:27:40.628Z,43.25
2023-04-12T00:30:44.213Z,41.00
2023-04-12T00:33:48.357Z,52.00
2023-04-12T00:36:53.258Z,49.25
2023-04-12T00:39:57.329Z,48.25
2023-04-12T00:43:02.032Z,28.50
2023-04-12T00:46:06.245Z,21.75
2023-04-12T00:49:09.783Z,19.75
2023-04-12T00:52:15.816Z,17.75
2023-04-12T00:55:19.489Z,19.00
2023-04-12T00:58:25.392Z,14.75
2023-04-12T01:01:29.392Z,11.00
2023-04-12T01:04:34.698Z,11.00
2023-04-12T01:07:51.604Z,11.50
2023-04-12T01:11:02.591Z,11.00
2023-04-12T01:14:16.505Z,14.50
2023-04-12T01:17:27.482Z,13.50
2023-04-12T01:20:37.488Z,17.25
2023-04-12T01:24:04.900Z,22.50
2023-04-12T01:27:13.487Z,29.00
2023-04-12T01:30:21.423Z,16.50
2023-04-12T01:33:31.434Z,16.75
2023-04-12T01:36:36.976Z,15.75
2023-04-12T01:39:40.589Z,12.25
2023-04-12T01:42:44.439Z,26.25
2023-04-12T01:45:50.019Z,24.00
2023-04-12T01:48:55.404Z,27.00
2023-04-12T01:52:04.933Z,26.50
2023-04-12T01:55:10.828Z,23.75
2023-04-12T01:58:18.447Z,22.00
2023-04-12T02:01:24.439Z,18.50
2023-04-12T02:04:30.166Z,17.50
2023-04-12T02:07:34.067Z,29.00
2023-04-12T02:10:40.197Z,26.75
2023-04-12T02:13:44.593Z,26.00
2023-04-12T02:16:50.747Z,29.00
2023-04-12T02:19:55.373Z,27.50
2023-04-12T02:23:00.329Z,29.25
2023-04-12T02:26:04.699Z,26.75
2023-04-12T02:29:10.846Z,24.50
2023-04-12T02:32:17.027Z,24.00
2023-04-12T02:35:21.173Z,27.25
2023-04-12T02:38:31.023Z,26.50
2023-04-12T02:41:38.692Z,18.25
2023-04-12T02:44:48.417Z,21.50
2023-04-12T02:47:54.311Z,23.25
2023-04-12T02:51:02.767Z,24.00
2023-04-12T02:54:09.188Z,17.75
2023-04-12T02:57:27.631Z,7.75
2023-04-12T03:00:31.677Z,6.00
2023-04-12T03:03:39.390Z,5.00
2023-04-12T03:07:01.411Z,3.00
2023-04-12T03:10:23.756Z,3.00
2023-04-12T03:13:36.500Z,2.00
2023-04-12T03:16:42.167Z,1.75
2023-04-12T03:19:52.730Z,2.75
2023-04-12T03:22:57.879Z,0.75
2023-04-12T03:26:01.483Z,2.00
2023-04-12T03:29:08.910Z,2.00
2023-04-12T03:32:15.567Z,2.25
2023-04-12T03:35:23.835Z,1.00
2023-04-12T03:38:28.632Z,1.00
2023-04-12T03:41:33.577Z,2.25
2023-04-12T03:44:40.585Z,1.00
2023-04-12T03:47:48.363Z,2.75
2023-04-12T03:50:59.834Z,2.50
2023-04-12T03:54:07.394Z,4.00
2023-04-12T03:57:28.856Z,12.00
2023-04-12T04:00:33.409Z,13.00
2023-04-12T04:03:46.324Z,3.00
2023-04-12T04:07:02.648Z,10.75
2023-04-12T04:10:11.826Z,4.75
2023-04-12T04:13:18.814Z,2.75
2023-04-12T04:16:23.127Z,3.00
2023-04-12T04:19:28.687Z,1.75
2023-04-12T04:22:34.733Z,11.00
2023-04-12T04:25:41.952Z,5.50
2023-04-12T04:28:50.345Z,6.00
2023-04-12T04:31:58.648Z,2.00
2023-04-12T04:35:04.055Z,3.00
2023-04-12T04:38:20.327Z,2.25
2023-04-12T04:41:24.456Z,2.75
2023-04-12T04:44:36.283Z,3.00
2023-04-12T04:47:43.112Z,5.00
2023-04-12T04:50:47.835Z,3.00
2023-04-12T04:53:53.344Z,11.00
2023-04-12T04:56:57.884Z,16.00
2023-04-12T05:00:11.053Z,6.00
2023-04-12T05:03:16.775Z,7.00
2023-04-12T05:06:20.493Z,13.00
2023-04-12T05:09:26.461Z,10.50
2023-04-12T05:12:34.170Z,12.75
2023-04-12T05:15:41.991Z,42.00
2023-04-12T05:18:46.144Z,32.50
2023-04-12T05:21:49.823Z,7.00
2023-04-12T05:24:54.867Z,7.25
2023-04-12T05:27:58.961Z,8.00
2023-04-12T05:31:02.583Z,18.75
2023-04-12T05:34:13.292Z,15.50
2023-04-12T05:37:23.919Z,19.25
2023-04-12T05:40:31.678Z,30.50
2023-04-12T05:43:37.742Z,29.50
2023-04-12T05:46:42.885Z,14.00
2023-04-12T05:49:46.370Z,20.00
2023-04-12T05:52:51.992Z,27.25
2023-04-12T05:56:01.934Z,13.75
2023-04-12T05:59:06.737Z,12.75
2023-04-12T06:02:12.212Z,6.25
2023-04-12T06:05:17.626Z,9.75
2023-04-12T06:08:21.796Z,7.75
2023-04-12T06:11:27.144Z,8.25
2023-04-12T06:14:31.270Z,8.25
2023-04-12T06:17:36.437Z,12.00
2023-04-12T06:20:40.746Z,4.50
2023-04-12T08:18:59.162Z,2.33
2023-04-12T08:22:03.998Z,4.00
2023-04-12T08:25:08.726Z,3.00
2023-04-12T08:28:12.523Z,12.50
2023-04-12T08:31:16.316Z,4.00
2023-04-12T08:34:22.528Z,2.00
2023-04-12T08:37:25.935Z,2.00
2023-04-12T08:40:30.879Z,8.00
2023-04-12T08:43:35.506Z,5.50
2023-04-12T08:46:39.318Z,2.25
2023-04-12T08:49:45.358Z,5.00
2023-04-12T08:52:51.844Z,5.00
2023-04-12T08:55:59.992Z,2.00
2023-04-12T08:59:04.248Z,5.00
2023-04-12T09:02:07.982Z,4.00
2023-04-12T09:05:14.535Z,4.00
2023-04-12T09:08:18.435Z,4.00
2023-04-12T09:11:27.136Z,3.50
2023-04-12T09:14:30.638Z,2.00
2023-04-12T09:17:36.809Z,3.00
2023-04-12T09:20:41.818Z,3.00
2023-04-12T09:23:45.796Z,2.00
2023-04-12T09:26:49.264Z,3.00
2023-04-12T09:29:53.102Z,3.50
2023-04-12T09:32:56.496Z,4.75
2023-04-12T09:36:03.762Z,5.00
2023-04-12T09:39:07.833Z,1.67
2023-04-12T09:42:31.820Z,2.00
2023-04-12T09:45:39.053Z,8.00
2023-04-12T09:48:49.705Z,3.50
2023-04-12T09:51:55.657Z,3.00
2023-04-12T09:55:00.884Z,7.75
2023-04-12T09:58:05.466Z,4.00
2023-04-12T10:01:12.352Z,3.00
2023-04-12T10:04:16.452Z,1.00
2023-04-12T10:07:22.332Z,9.00
2023-04-12T10:10:26.009Z,7.00
2023-04-12T10:13:33.296Z,3.00
2023-04-12T10:16:37.885Z,16.00
2023-04-12T10:19:42.044Z,8.25
2023-04-12T10:22:48.868Z,6.50
2023-04-12T10:25:55.609Z,2.00
2023-04-12T10:29:25.406Z,1.25
2023-04-12T10:32:29.400Z,1.00
2023-04-12T10:35:51.839Z,1.00
2023-04-12T10:39:11.053Z,1.00
2023-04-12T10:42:28.051Z,3.33
2023-04-12T10:45:38.472Z,1.00
2023-04-12T10:48:53.177Z,2.00
2023-04-12T10:52:20.895Z,1.00
2023-04-12T10:55:34.778Z,8.75
2023-04-12T10:58:59.382Z,4.00
2023-04-12T11:02:11.725Z,3.00
2023-04-12T11:05:19.463Z,11.50
2023-04-12T11:08:41.339Z,3.00
2023-04-12T11:12:14.953Z,3.25
2023-04-12T11:15:21.614Z,7.00
2023-04-12T11:18:30.556Z,5.00
2023-04-12T11:21:34.388Z,3.00
2023-04-12T11:24:40.409Z,6.25
2023-04-12T11:27:50.981Z,2.33
2023-04-12T11:30:56.032Z,7.25
2023-04-12T11:34:01.407Z,8.50
2023-04-12T11:37:08.686Z,5.25
2023-04-12T11:40:12.857Z,5.50
2023-04-12T11:43:22.093Z,6.75
2023-04-12T11:46:27.653Z,11.00
2023-04-12T11:49:32.195Z,7.00
2023-04-12T11:52:35.953Z,15.25
2023-04-12T11:55:39.924Z,9.00
2023-04-12T11:58:48.033Z,13.75
